Time;durP1;ratioP1;P1;durP2;ratioP2;P2;SDS_P1;SDS_P2;PMS_P1;PMS_P2;Temp;Humidity;BMP_temperature;BMP_pressure;BME280_temperature;BME280_humidity;BME280_pressure;Samples;Min_cycle;Max_cycle;Signal;HPM_P1;HPM_P2
2024/02/07 00:01:49;;;;;;;9.70;2.40;;;;;;;;;;4841998;29;20116;-81
2024/02/07 00:04:19;;;;;;;9.68;2.10;;;;;;;;;;4843602;29;20056;-80
2024/02/07 00:06:50;;;;;;;13.68;2.05;;;;;;;;;;4844140;29;20390;-81
2024/02/07 00:09:20;;;;;;;14.52;2.60;;;;;;;;;;4843878;29;20066;-81
2024/02/07 00:11:51;;;;;;;8.75;1.95;;;;;;;;;;4843497;29;20440;-81
2024/02/07 00:14:20;;;;;;;13.02;2.03;;;;;;;;;;4843380;29;20061;-81
2024/02/07 00:16:50;;;;;;;8.68;2.08;;;;;;;;;;4843470;29;20057;-80
2024/02/07 00:19:21;;;;;;;9.38;2.10;;;;;;;;;;4843683;29;20061;-82
2024/02/07 00:21:54;;;;;;;9.15;2.13;;;;;;;;;;4843292;29;20357;-81
2024/02/07 00:24:24;;;;;;;13.23;1.90;;;;;;;;;;4843134;29;20061;-80
2024/02/07 00:27:00;;;;;;;10.27;2.25;;;;;;;;;;4843063;29;20054;-80
2024/02/07 00:29:31;;;;;;;9.30;2.10;;;;;;;;;;4842825;29;20054;-79
2024/02/07 00:32:02;;;;;;;5.22;2.10;;;;;;;;;;4825430;29;20065;-79
2024/02/07 00:34:33;;;;;;;11.52;2.33;;;;;;;;;;4841909;29;20060;-80
2024/02/07 00:37:04;;;;;;;7.03;2.10;;;;;;;;;;4839585;29;20510;-80
2024/02/07 00:39:38;;;;;;;6.82;2.13;;;;;;;;;;4843272;29;20389;-79
2024/02/07 00:42:08;;;;;;;10.57;2.20;;;;;;;;;;4842933;29;20049;-80
2024/02/07 00:44:39;;;;;;;7.13;2.35;;;;;;;;;;4843098;29;20054;-79
2024/02/07 00:47:11;;;;;;;12.23;2.25;;;;;;;;;;4825423;29;20053;-79
2024/02/07 00:49:44;;;;;;;9.50;2.03;;;;;;;;;;4841157;29;20065;-81
2024/02/07 00:52:14;;;;;;;9.25;2.33;;;;;;;;;;4841636;29;20053;-80
2024/02/07 00:54:44;;;;;;;8.57;2.05;;;;;;;;;;4838833;29;20034;-79
2024/02/07 00:57:14;;;;;;;10.25;2.15;;;;;;;;;;4842242;29;20053;-78
2024/02/07 00:59:45;;;;;;;6.90;1.92;;;;;;;;;;4842283;29;20053;-80
2024/02/07 01:02:16;;;;;;;7.18;2.30;;;;;;;;;;4824120;29;20058;-79
2024/02/07 01:04:47;;;;;;;10.20;2.38;;;;;;;;;;4842489;29;20493;-80
2024/02/07 01:07:17;;;;;;;12.63;2.20;;;;;;;;;;4842935;29;20038;-81
2024/02/07 01:09:48;;;;;;;7.50;2.50;;;;;;;;;;4839531;29;20497;-79
2024/02/07 01:12:19;;;;;;;10.77;2.72;;;;;;;;;;4840127;29;20503;-81
2024/02/07 01:14:49;;;;;;;5.38;2.20;;;;;;;;;;4843198;29;20050;-80
2024/02/07 01:17:19;;;;;;;12.43;2.80;;;;;;;;;;4842633;29;20049;-79
2024/02/07 01:19:52;;;;;;;8.00;2.38;;;;;;;;;;4843040;29;20049;-81
2024/02/07 01:22:23;;;;;;;7.00;2.58;;;;;;;;;;4843099;29;20393;-79
2024/02/07 01:24:55;;;;;;;10.35;2.38;;;;;;;;;;4842424;29;20050;-80
2024/02/07 01:27:28;;;;;;;7.03;2.35;;;;;;;;;;4842061;29;20053;-80
2024/02/07 01:29:58;;;;;;;9.43;2.53;;;;;;;;;;4842369;29;20034;-79
2024/02/07 01:32:29;;;;;;;7.05;2.05;;;;;;;;;;4842178;29;20049;-80
2024/02/07 01:35:00;;;;;;;12.25;2.22;;;;;;;;;;4840656;29;20054;-79
2024/02/07 01:37:31;;;;;;;6.63;2.45;;;;;;;;;;4840605;29;20068;-79
2024/02/07 01:40:00;;;;;;;10.35;2.53;;;;;;;;;;4838639;29;20405;-79
2024/02/07 01:42:32;;;;;;;8.52;2.95;;;;;;;;;;4841216;29;20500;-79
2024/02/07 01:45:23;;;;;;;13.75;2.38;;;;;;;;;;4841441;29;20492;-80
2024/02/07 01:51:26;;;;;;;9.55;2.30;;;;;;;;;;4841414;29;20057;-80
2024/02/07 01:53:56;;;;;;;3.83;2.00;;;;;;;;;;4824672;29;20094;-79
2024/02/07 01:56:26;;;;;;;6.68;2.25;;;;;;;;;;4824497;29;20066;-79
2024/02/07 01:58:57;;;;;;;7.63;2.40;;;;;;;;;;4855531;29;20520;-79
2024/02/07 02:01:33;;;;;;;7.80;2.00;;;;;;;;;;4824861;29;20062;-80
2024/02/07 02:04:03;;;;;;;5.75;2.42;;;;;;;;;;4841190;29;20054;-80
2024/02/07 02:06:34;;;;;;;7.78;2.55;;;;;;;;;;4840302;29;20050;-81
2024/02/07 02:09:05;;;;;;;6.13;3.17;;;;;;;;;;4841034;29;20046;-80
2024/02/07 02:11:40;;;;;;;11.60;2.53;;;;;;;;;;4840353;29;20050;-79
2024/02/07 02:14:18;;;;;;;8.02;2.75;;;;;;;;;;4839935;29;20037;-79
2024/02/07 02:16:48;;;;;;;6.90;2.45;;;;;;;;;;4807042;29;20057;-80
2024/02/07 02:19:20;;;;;;;10.27;2.83;;;;;;;;;;4823516;29;20054;-79
2024/02/07 02:22:34;;;;;;;10.32;2.53;;;;;;;;;;4859534;29;20045;-79
2024/02/07 02:25:32;;;;;;;7.65;2.40;;;;;;;;;;4861633;29;20055;-80
2024/02/07 02:31:28;;;;;;;8.70;2.80;;;;;;;;;;4863366;29;20389;-80
2024/02/07 02:34:01;;;;;;;7.88;2.50;;;;;;;;;;4846479;29;20057;-79
2024/02/07 02:36:32;;;;;;;7.20;2.60;;;;;;;;;;4845912;29;20068;-80
2024/02/07 02:39:05;;;;;;;6.38;2.17;;;;;;;;;;4846536;29;20064;-79
2024/02/07 02:41:35;;;;;;;7.65;2.70;;;;;;;;;;4862871;29;20064;-79
2024/02/07 02:44:05;;;;;;;8.00;2.80;;;;;;;;;;4846057;29;20045;-79
2024/02/07 02:46:37;;;;;;;4.93;2.47;;;;;;;;;;4862864;29;20061;-80
2024/02/07 02:49:06;;;;;;;8.88;2.90;;;;;;;;;;4862415;29;20488;-79
2024/02/07 02:51:37;;;;;;;8.95;2.47;;;;;;;;;;4862508;29;20496;-79
2024/02/07 02:54:12;;;;;;;9.75;2.97;;;;;;;;;;4862185;29;20046;-79
2024/02/07 02:56:44;;;;;;;7.63;2.50;;;;;;;;;;4862483;29;20468;-80
2024/02/07 02:59:15;;;;;;;7.38;3.03;;;;;;;;;;4862203;29;20523;-79
2024/02/07 03:01:45;;;;;;;9.43;2.90;;;;;;;;;;4845771;29;20053;-79
2024/02/07 03:04:17;;;;;;;9.90;3.30;;;;;;;;;;4862127;29;20076;-79
2024/02/07 03:06:58;;;;;;;5.53;2.58;;;;;;;;;;4845466;29;20069;-78
2024/02/07 03:09:30;;;;;;;7.20;2.83;;;;;;;;;;4825292;29;20050;-80
2024/02/07 03:12:01;;;;;;;6.80;2.50;;;;;;;;;;4840987;29;20046;-79
2024/02/07 03:14:35;;;;;;;7.22;2.45;;;;;;;;;;4863144;29;20060;-79
2024/02/07 03:17:05;;;;;;;12.25;2.85;;;;;;;;;;4863224;29;20041;-79
2024/02/07 03:19:35;;;;;;;5.07;2.50;;;;;;;;;;4876031;29;20054;-80
2024/02/07 03:22:06;;;;;;;8.13;3.08;;;;;;;;;;4862853;29;20163;-79
2024/02/07 03:24:37;;;;;;;6.82;2.72;;;;;;;;;;4862959;29;20041;-79
2024/02/07 03:27:07;;;;;;;11.80;2.97;;;;;;;;;;4863132;29;20503;-80
2024/02/07 03:29:37;;;;;;;5.30;3.13;;;;;;;;;;4876424;29;20060;-79
2024/02/07 03:32:07;;;;;;;5.90;2.60;;;;;;;;;;4862299;29;20056;-79
2024/02/07 03:34:37;;;;;;;7.57;2.72;;;;;;;;;;4862334;29;20049;-80
2024/02/07 03:37:10;;;;;;;8.05;2.33;;;;;;;;;;4862229;29;20049;-80
2024/02/07 03:39:42;;;;;;;6.75;2.83;;;;;;;;;;4862819;29;20045;-79
2024/02/07 03:42:13;;;;;;;4.95;2.53;;;;;;;;;;4862572;29;20066;-80
2024/02/07 03:44:44;;;;;;;6.05;2.53;;;;;;;;;;4862463;29;20049;-80
2024/02/07 03:47:15;;;;;;;7.32;2.72;;;;;;;;;;4846543;29;20052;-80
2024/02/07 03:49:47;;;;;;;9.73;2.78;;;;;;;;;;4845773;29;20050;-79
2024/02/07 03:52:19;;;;;;;8.05;2.80;;;;;;;;;;4862448;29;20523;-79
2024/02/07 03:54:51;;;;;;;10.70;2.80;;;;;;;;;;4862441;29;20504;-80
2024/02/07 03:57:22;;;;;;;11.70;2.70;;;;;;;;;;4862388;29;20046;-80
2024/02/07 03:59:52;;;;;;;11.75;2.83;;;;;;;;;;4862450;29;20045;-79
2024/02/07 04:02:24;;;;;;;12.20;2.97;;;;;;;;;;4862054;29;20049;-80
2024/02/07 04:04:54;;;;;;;6.95;2.65;;;;;;;;;;4845993;29;20120;-79
2024/02/07 04:07:24;;;;;;;5.82;2.50;;;;;;;;;;4857642;29;20053;-80
2024/02/07 04:09:57;;;;;;;7.40;2.85;;;;;;;;;;4843888;29;20046;-79
2024/02/07 05:17:10;;;;;;;8.65;2.85;;;;;;;;;;4842706;29;20057;-79
2024/02/07 05:19:41;;;;;;;9.60;2.80;;;;;;;;;;4842657;29;20058;-79
2024/02/07 05:22:11;;;;;;;7.22;3.15;;;;;;;;;;4826224;29;20404;-79
2024/02/07 05:24:42;;;;;;;9.43;2.83;;;;;;;;;;4842707;29;20046;-79
2024/02/07 05:27:13;;;;;;;8.52;3.00;;;;;;;;;;4842833;29;20064;-79
2024/02/07 05:29:44;;;;;;;6.28;2.83;;;;;;;;;;4842914;29;20064;-79
2024/02/07 05:32:13;;;;;;;6.70;2.95;;;;;;;;;;4842192;29;20420;-79
2024/02/07 05:34:44;;;;;;;7.60;3.05;;;;;;;;;;4842023;29;20050;-80
2024/02/07 05:37:14;;;;;;;7.63;2.88;;;;;;;;;;4841986;29;20066;-80
2024/02/07 05:39:47;;;;;;;11.02;2.88;;;;;;;;;;4842502;29;20050;-79
2024/02/07 05:42:18;;;;;;;7.00;3.33;;;;;;;;;;4827194;29;20408;-79
2024/02/07 05:44:48;;;;;;;9.07;3.35;;;;;;;;;;4842525;29;20050;-80
2024/02/07 05:47:20;;;;;;;9.52;3.17;;;;;;;;;;4839570;29;20054;-80
2024/02/07 05:49:51;;;;;;;7.32;2.85;;;;;;;;;;4826480;29;20050;-79
2024/02/07 05:52:23;;;;;;;9.77;3.35;;;;;;;;;;4842291;29;20065;-79
2024/02/07 05:54:56;;;;;;;7.03;2.80;;;;;;;;;;4842446;29;20050;-80
2024/02/07 05:57:27;;;;;;;6.05;3.67;;;;;;;;;;4842197;29;20374;-79
2024/02/07 05:59:57;;;;;;;7.57;3.50;;;;;;;;;;4845923;29;20056;-80
2024/02/07 06:02:27;;;;;;;6.75;2.75;;;;;;;;;;4845868;29;20054;-79
2024/02/07 06:05:02;;;;;;;5.97;3.13;;;;;;;;;;4829591;29;20057;-80
2024/02/07 06:07:34;;;;;;;8.55;2.92;;;;;;;;;;4845869;29;20392;-79
2024/02/07 06:10:06;;;;;;;8.80;3.38;;;;;;;;;;4846361;29;20053;-79
2024/02/07 06:12:39;;;;;;;7.63;3.22;;;;;;;;;;4845765;29;20046;-80
2024/02/07 06:15:10;;;;;;;9.90;3.22;;;;;;;;;;4845748;29;20046;-80
2024/02/07 06:17:40;;;;;;;8.07;3.15;;;;;;;;;;4846185;29;20070;-79
2024/02/07 06:20:12;;;;;;;7.32;3.13;;;;;;;;;;4845642;29;20042;-80
2024/02/07 06:22:47;;;;;;;;;;;;;;;;;;4830167;29;20496;-79
2024/02/07 06:25:18;;;;;;;6.55;2.92;;;;;;;;;;4859218;29;19947;-80
2024/02/07 06:27:50;;;;;;;9.57;3.65;;;;;;;;;;4829619;29;20378;-79
2024/02/07 06:30:21;;;;;;;13.52;3.42;;;;;;;;;;4845902;29;20396;-79
2024/02/07 06:32:51;;;;;;;12.43;3.15;;;;;;;;;;4829248;29;20057;-79
2024/02/07 06:35:21;;;;;;;8.77;3.30;;;;;;;;;;4845834;29;20056;-79
2024/02/07 06:37:51;;;;;;;6.28;2.72;;;;;;;;;;4829092;29;20417;-79
2024/02/07 06:40:22;;;;;;;8.48;2.65;;;;;;;;;;4845350;29;20489;-79
2024/02/07 06:42:52;;;;;;;10.43;2.83;;;;;;;;;;4845245;29;20057;-79
2024/02/07 06:45:22;;;;;;;6.15;3.13;;;;;;;;;;4844886;29;20046;-80
2024/02/07 06:47:52;;;;;;;7.32;2.90;;;;;;;;;;4845116;29;20073;-79
2024/02/07 06:50:24;;;;;;;5.78;3.10;;;;;;;;;;4844827;29;20046;-79
2024/02/07 06:52:54;;;;;;;6.60;3.20;;;;;;;;;;4845089;29;20058;-80
2024/02/07 06:55:25;;;;;;;6.15;2.83;;;;;;;;;;4844849;29;20057;-79
2024/02/07 06:57:55;;;;;;;5.75;2.75;;;;;;;;;;4845151;29;20159;-78
2024/02/07 07:00:25;;;;;;;6.50;2.88;;;;;;;;;;4845235;29;20057;-78
2024/02/07 07:02:55;;;;;;;7.78;2.72;;;;;;;;;;4844143;29;20046;-80
2024/02/07 07:05:26;;;;;;;8.93;2.65;;;;;;;;;;4844599;29;20046;-80
2024/02/07 07:07:57;;;;;;;6.43;2.72;;;;;;;;;;4845448;29;20057;-79
2024/02/07 07:10:28;;;;;;;7.68;2.72;;;;;;;;;;4828441;29;20042;-79
2024/02/07 07:12:58;;;;;;;8.05;2.78;;;;;;;;;;4828334;29;20504;-79
2024/02/07 07:15:28;;;;;;;10.07;3.03;;;;;;;;;;4844618;29;20050;-79
2024/02/07 07:18:02;;;;;;;6.45;3.75;;;;;;;;;;4844403;29;20045;-79
2024/02/07 07:20:34;;;;;;;6.07;2.92;;;;;;;;;;4844609;29;20127;-80
2024/02/07 07:23:04;;;;;;;5.65;3.13;;;;;;;;;;4844662;29;20373;-80
2024/02/07 07:25:44;;;;;;;6.70;2.80;;;;;;;;;;4844379;29;20077;-80
2024/02/07 07:28:14;;;;;;;5.32;2.83;;;;;;;;;;4844752;29;20080;-79
2024/02/07 07:30:47;;;;;;;6.40;3.00;;;;;;;;;;4845104;29;20485;-79
2024/02/07 07:33:18;;;;;;;7.43;3.20;;;;;;;;;;4844775;29;20054;-79
2024/02/07 07:35:49;;;;;;;10.13;3.00;;;;;;;;;;4844304;29;20465;-79
2024/02/07 07:38:19;;;;;;;9.07;3.53;;;;;;;;;;4844069;29;20050;-79
2024/02/07 07:40:50;;;;;;;8.75;3.28;;;;;;;;;;4844472;29;20400;-79
2024/02/07 07:43:21;;;;;;;7.97;3.20;;;;;;;;;;4828286;29;20129;-80
2024/02/07 07:45:53;;;;;;;5.93;2.60;;;;;;;;;;4844386;29;20484;-79
2024/02/07 07:48:24;;;;;;;7.88;2.90;;;;;;;;;;4844617;29;20054;-79
2024/02/07 07:50:54;;;;;;;7.05;3.25;;;;;;;;;;4843907;29;20571;-80
2024/02/07 07:53:24;;;;;;;6.97;2.90;;;;;;;;;;4827535;29;20065;-79
2024/02/07 07:55:54;;;;;;;6.18;3.08;;;;;;;;;;4843634;29;20481;-80
2024/02/07 07:58:24;;;;;;;8.43;3.17;;;;;;;;;;4844040;29;20058;-79
2024/02/07 08:01:05;;;;;;;12.75;3.45;;;;;;;;;;4843792;29;20489;-79
2024/02/07 08:03:35;;;;;;;5.05;2.80;;;;;;;;;;4843498;29;20057;-80
2024/02/07 08:06:07;;;;;;;10.55;3.30;;;;;;;;;;4843547;29;20078;-80
2024/02/07 08:08:37;;;;;;;9.25;3.13;;;;;;;;;;4847264;29;20532;-80
2024/02/07 08:11:07;;;;;;;5.32;2.72;;;;;;;;;;4843933;29;20062;-79
2024/02/07 08:13:37;;;;;;;6.82;2.85;;;;;;;;;;4844193;29;20503;-79
2024/02/07 08:16:07;;;;;;;5.97;2.83;;;;;;;;;;4843352;29;20088;-79
2024/02/07 08:18:37;;;;;;;5.53;2.70;;;;;;;;;;4844461;29;20073;-79
2024/02/07 08:21:08;;;;;;;7.70;3.03;;;;;;;;;;4843046;29;20065;-80
2024/02/07 08:23:38;;;;;;;5.60;3.08;;;;;;;;;;4846582;29;20065;-80
2024/02/07 08:26:10;;;;;;;7.80;3.13;;;;;;;;;;4845236;29;20050;-80
2024/02/07 08:28:42;;;;;;;7.68;2.78;;;;;;;;;;4844605;29;20065;-80
2024/02/07 08:31:14;;;;;;;8.93;2.90;;;;;;;;;;4843711;29;20050;-81
2024/02/07 08:33:44;;;;;;;;;;;;;;;;;;4847490;29;20060;-80
2024/02/07 08:36:14;;;;;;;5.57;2.90;;;;;;;;;;4843453;29;19924;-81
2024/02/07 08:38:44;;;;;;;5.32;2.75;;;;;;;;;;4843284;29;20054;-80
2024/02/07 08:41:14;;;;;;;7.82;2.90;;;;;;;;;;4843972;29;20058;-80
2024/02/07 08:43:44;;;;;;;8.60;2.78;;;;;;;;;;4843372;29;20062;-80
2024/02/07 08:46:13;;;;;;;11.63;2.90;;;;;;;;;;4843466;29;20065;-80
2024/02/07 08:48:46;;;;;;;6.45;2.65;;;;;;;;;;4843211;29;20062;-79
2024/02/07 08:51:18;;;;;;;6.25;2.70;;;;;;;;;;4844577;29;20054;-81
2024/02/07 08:53:48;;;;;;;9.00;2.90;;;;;;;;;;4843099;29;20054;-81
2024/02/07 08:56:18;;;;;;;9.43;2.88;;;;;;;;;;4843543;29;20469;-80
2024/02/07 08:58:48;;;;;;;6.25;3.28;;;;;;;;;;4843199;29;20066;-80
2024/02/07 09:01:20;;;;;;;7.07;2.83;;;;;;;;;;4842935;29;20424;-79
2024/02/07 09:03:52;;;;;;;5.70;3.13;;;;;;;;;;4844096;29;20057;-80
2024/02/07 09:06:23;;;;;;;7.32;2.90;;;;;;;;;;4842389;29;20057;-79
2024/02/07 09:08:53;;;;;;;9.95;3.30;;;;;;;;;;4827072;29;20058;-80
2024/02/07 09:11:22;;;;;;;7.75;3.15;;;;;;;;;;4842684;29;20053;-80
2024/02/07 09:13:52;;;;;;;9.10;3.00;;;;;;;;;;4827080;29;20117;-80
2024/02/07 09:16:22;;;;;;;7.80;3.20;;;;;;;;;;4842933;29;20056;-80
2024/02/07 09:18:52;;;;;;;7.38;3.35;;;;;;;;;;4842755;29;20074;-79
2024/02/07 09:21:22;;;;;;;7.05;3.53;;;;;;;;;;4845548;29;20062;-81
2024/02/07 09:23:51;;;;;;;6.45;2.83;;;;;;;;;;4827301;29;20066;-81
2024/02/07 09:26:21;;;;;;;10.85;3.17;;;;;;;;;;4842779;29;20401;-80
2024/02/07 09:28:51;;;;;;;7.75;3.17;;;;;;;;;;4842715;29;20061;-80
2024/02/07 09:31:22;;;;;;;11.82;2.90;;;;;;;;;;4842703;29;20050;-80
2024/02/07 09:33:52;;;;;;;7.13;2.70;;;;;;;;;;4842105;29;20058;-80
2024/02/07 09:36:22;;;;;;;8.18;3.25;;;;;;;;;;4842182;29;20061;-79
2024/02/07 09:38:52;;;;;;;6.72;3.30;;;;;;;;;;4842470;29;20050;-80
2024/02/07 09:41:23;;;;;;;8.20;3.33;;;;;;;;;;4841818;29;20058;-80
2024/02/07 09:43:56;;;;;;;9.90;3.70;;;;;;;;;;4842474;29;20057;-80
2024/02/07 09:46:34;;;;;;;8.77;3.30;;;;;;;;;;4831032;29;20084;-79
2024/02/07 09:49:08;;;;;;;12.02;3.35;;;;;;;;;;4845399;29;20054;-79
2024/02/07 09:51:40;;;;;;;8.90;3.13;;;;;;;;;;4843709;29;20050;-79
2024/02/07 09:54:13;;;;;;;11.10;3.33;;;;;;;;;;4843142;29;20050;-79
2024/02/07 09:56:45;;;;;;;14.88;3.92;;;;;;;;;;4846335;29;20078;-80
2024/02/07 09:59:15;;;;;;;9.55;2.97;;;;;;;;;;4845254;29;20049;-80
2024/02/07 10:01:49;;;;;;;8.30;2.53;;;;;;;;;;4844085;29;20054;-79
2024/02/07 10:04:26;;;;;;;5.65;2.70;;;;;;;;;;4839838;29;20046;-79
2024/02/07 10:06:59;;;;;;;9.07;2.53;;;;;;;;;;4839780;29;20057;-79
2024/02/07 10:09:31;;;;;;;8.38;2.45;;;;;;;;;;4825971;29;20045;-80
2024/02/07 10:12:02;;;;;;;8.85;2.35;;;;;;;;;;4845044;29;20051;-79
2024/02/07 10:14:33;;;;;;;10.43;2.63;;;;;;;;;;4823836;29;20132;-80
2024/02/07 10:17:05;;;;;;;6.95;2.70;;;;;;;;;;4826067;29;20054;-79
2024/02/07 10:19:35;;;;;;;10.15;2.35;;;;;;;;;;4842735;29;20046;-80
2024/02/07 10:22:56;;;;;;;5.60;2.33;;;;;;;;;;4840993;29;20049;-80
2024/02/07 10:25:26;;;;;;;4.95;2.47;;;;;;;;;;4842360;29;20054;-80
2024/02/07 10:28:05;;;;;;;5.93;2.08;;;;;;;;;;4837626;29;20057;-80
2024/02/07 10:30:36;;;;;;;7.65;2.65;;;;;;;;;;4821825;29;20417;-79
2024/02/07 10:33:06;;;;;;;7.63;1.98;;;;;;;;;;4823525;29;20061;-80
2024/02/07 10:35:39;;;;;;;8.13;2.28;;;;;;;;;;4840241;29;20042;-79
2024/02/07 10:38:10;;;;;;;3.90;2.20;;;;;;;;;;4839840;29;20045;-80
2024/02/07 10:40:40;;;;;;;7.78;2.10;;;;;;;;;;4840953;29;20050;-80
2024/02/07 10:43:10;;;;;;;9.57;2.53;;;;;;;;;;4839772;29;20049;-80
2024/02/07 10:45:40;;;;;;;7.43;2.05;;;;;;;;;;4841049;29;20048;-80
2024/02/07 10:48:10;;;;;;;7.28;2.17;;;;;;;;;;4827537;29;20524;-80
2024/02/07 10:50:40;;;;;;;4.72;2.30;;;;;;;;;;4843242;29;20054;-81
2024/02/07 10:53:11;;;;;;;7.43;2.22;;;;;;;;;;4842866;29;20433;-81
2024/02/07 10:55:41;;;;;;;5.35;2.17;;;;;;;;;;4843901;29;20046;-81
2024/02/07 10:58:17;;;;;;;7.55;2.08;;;;;;;;;;4827983;29;20076;-81
2024/02/07 11:00:53;;;;;;;5.43;2.00;;;;;;;;;;4844239;29;20048;-82
2024/02/07 11:03:29;;;;;;;6.45;2.40;;;;;;;;;;4839913;29;20056;-80
2024/02/07 11:06:00;;;;;;;8.40;2.40;;;;;;;;;;4829120;29;20503;-83
2024/02/07 11:08:30;;;;;;;5.32;2.03;;;;;;;;;;4836480;29;20532;-82
2024/02/07 11:11:02;;;;;;;7.63;2.00;;;;;;;;;;4843732;29;20049;-82
2024/02/07 11:13:33;;;;;;;5.25;2.17;;;;;;;;;;4843212;29;20509;-82
2024/02/07 11:16:04;;;;;;;5.13;2.47;;;;;;;;;;4842953;29;20057;-81
2024/02/07 11:18:35;;;;;;;4.80;1.70;;;;;;;;;;4828577;29;20046;-82
2024/02/07 11:21:06;;;;;;;3.65;1.60;;;;;;;;;;4843252;29;20042;-84
2024/02/07 11:23:38;;;;;;;4.90;1.70;;;;;;;;;;4826998;29;20058;-81
2024/02/07 11:26:09;;;;;;;3.13;2.08;;;;;;;;;;4840905;29;20049;-82
2024/02/07 11:28:40;;;;;;;5.38;1.50;;;;;;;;;;4843669;29;20064;-81
2024/02/07 11:31:11;;;;;;;5.68;1.40;;;;;;;;;;4842351;29;20046;-82
2024/02/07 11:33:43;;;;;;;6.38;1.40;;;;;;;;;;4827177;29;20523;-81
2024/02/07 11:36:21;;;;;;;2.92;1.38;;;;;;;;;;4842968;29;20088;-82
2024/02/07 11:38:55;;;;;;;3.95;1.30;;;;;;;;;;4842697;29;20505;-82
2024/02/07 11:41:27;;;;;;;4.35;1.25;;;;;;;;;;4842954;29;20058;-82
2024/02/07 11:44:07;;;;;;;5.30;1.95;;;;;;;;;;4843249;29;20058;-81
2024/02/07 11:46:50;;;;;;;3.08;1.15;;;;;;;;;;4843382;29;20076;-82
2024/02/07 11:49:20;;;;;;;5.03;1.52;;;;;;;;;;4858217;29;20065;-82
2024/02/07 11:52:00;;;;;;;2.88;1.17;;;;;;;;;;4842765;29;20500;-82
2024/02/07 11:54:32;;;;;;;5.28;1.48;;;;;;;;;;4856994;29;20077;-81
2024/02/07 11:57:02;;;;;;;4.53;1.23;;;;;;;;;;4826161;29;20054;-81
2024/02/07 11:59:33;;;;;;;7.00;1.40;;;;;;;;;;4827034;29;20050;-81
2024/02/07 12:02:04;;;;;;;5.97;1.33;;;;;;;;;;4843153;29;20057;-82
2024/02/07 12:04:41;;;;;;;3.33;1.48;;;;;;;;;;4843235;29;20061;-84
2024/02/07 12:07:14;;;;;;;6.03;1.20;;;;;;;;;;4842985;29;20046;-84
2024/02/07 12:09:45;;;;;;;3.67;1.08;;;;;;;;;;4842285;29;20053;-82
2024/02/07 12:12:16;;;;;;;3.50;1.25;;;;;;;;;;4842961;29;20053;-83
2024/02/07 12:14:50;;;;;;;6.65;1.25;;;;;;;;;;4826746;29;20058;-83
2024/02/07 12:17:21;;;;;;;3.83;1.50;;;;;;;;;;4845077;29;20046;-82
2024/02/07 12:19:51;;;;;;;3.80;1.35;;;;;;;;;;4843127;29;20062;-83
2024/02/07 12:22:21;;;;;;;2.38;1.38;;;;;;;;;;4842397;29;20156;-83
2024/02/07 12:25:00;;;;;;;4.93;1.30;;;;;;;;;;4833791;29;20065;-81
2024/02/07 12:27:30;;;;;;;3.60;1.20;;;;;;;;;;4824192;29;20049;-85
2024/02/07 12:30:01;;;;;;;;;;;;;;;;;;4838953;29;20050;-84
2024/02/07 12:32:31;;;;;;;2.90;1.30;;;;;;;;;;4845487;29;20322;-84
2024/02/07 12:35:07;;;;;;;5.28;1.40;;;;;;;;;;4855605;29;20050;-84
2024/02/07 12:37:39;;;;;;;3.15;1.30;;;;;;;;;;4825902;29;20416;-85
2024/02/07 12:40:16;;;;;;;3.60;1.30;;;;;;;;;;4851235;29;20061;-84
2024/02/07 12:42:46;;;;;;;;;;;;;;;;;;4841890;29;20038;-83
2024/02/07 12:45:17;;;;;;;5.25;1.10;;;;;;;;;;4841599;29;19925;-83
2024/02/07 12:47:47;;;;;;;3.63;1.40;;;;;;;;;;4839666;29;20046;-83
2024/02/07 12:50:19;;;;;;;6.63;1.35;;;;;;;;;;4841571;29;20150;-82
2024/02/07 12:52:50;;;;;;;2.90;1.13;;;;;;;;;;4823641;29;20508;-82
2024/02/07 12:55:20;;;;;;;4.43;1.63;;;;;;;;;;4841365;29;20049;-83
2024/02/07 12:58:01;;;;;;;3.58;1.20;;;;;;;;;;4844501;29;20393;-82
2024/02/07 13:00:32;;;;;;;;;;;;;;;;;;4828932;29;20484;-83
2024/02/07 13:03:04;;;;;;;4.03;1.42;;;;;;;;;;4841956;29;19929;-82
2024/02/07 13:05:35;;;;;;;3.75;1.50;;;;;;;;;;4840186;29;20057;-83
2024/02/07 13:08:11;;;;;;;4.10;1.75;;;;;;;;;;4835212;29;20068;-82
2024/02/07 13:10:44;;;;;;;3.28;1.15;;;;;;;;;;4833246;29;20054;-82
2024/02/07 13:13:15;;;;;;;3.22;1.13;;;;;;;;;;4841218;29;20058;-82
2024/02/07 13:15:45;;;;;;;2.95;1.10;;;;;;;;;;4839116;29;20049;-83
2024/02/07 13:18:15;;;;;;;4.63;1.05;;;;;;;;;;4851925;29;20057;-84
2024/02/07 13:20:46;;;;;;;2.33;0.90;;;;;;;;;;4841490;29;20057;-82
2024/02/07 13:23:18;;;;;;;2.65;0.90;;;;;;;;;;4841443;29;20081;-82
2024/02/07 13:25:50;;;;;;;2.20;0.82;;;;;;;;;;4855127;29;20054;-81
2024/02/07 13:28:23;;;;;;;2.90;0.95;;;;;;;;;;4840236;29;20057;-82
2024/02/07 13:30:53;;;;;;;1.92;0.98;;;;;;;;;;4839021;29;20069;-85
2024/02/07 13:33:24;;;;;;;1.33;0.90;;;;;;;;;;4838868;29;20046;-82
2024/02/07 13:35:54;;;;;;;3.22;1.10;;;;;;;;;;4835696;29;20062;-84
2024/02/07 13:38:23;;;;;;;3.97;1.00;;;;;;;;;;4826146;29;20065;-83
2024/02/07 13:41:05;;;;;;;1.92;0.90;;;;;;;;;;4835843;29;20163;-82
2024/02/07 13:43:35;;;;;;;2.85;1.05;;;;;;;;;;4841008;29;20050;-84
2024/02/07 13:46:06;;;;;;;3.60;1.00;;;;;;;;;;4832184;29;20046;-81
2024/02/07 13:48:35;;;;;;;3.20;1.40;;;;;;;;;;4850684;29;20050;-81
2024/02/07 13:51:06;;;;;;;2.13;1.05;;;;;;;;;;4839366;29;20049;-83
2024/02/07 13:53:37;;;;;;;2.38;0.90;;;;;;;;;;4840970;29;20046;-82
2024/02/07 13:56:08;;;;;;;1.63;0.88;;;;;;;;;;4839765;29;20042;-81
2024/02/07 13:58:38;;;;;;;2.03;1.10;;;;;;;;;;4844236;29;20057;-81
2024/02/07 14:01:09;;;;;;;2.33;0.90;;;;;;;;;;4858167;29;20507;-81
2024/02/07 14:03:39;;;;;;;5.22;0.90;;;;;;;;;;4859543;29;20045;-82
2024/02/07 14:06:10;;;;;;;1.75;0.82;;;;;;;;;;4859074;29;20072;-82
2024/02/07 14:08:40;;;;;;;6.07;1.10;;;;;;;;;;4859521;29;20049;-81
2024/02/07 14:11:10;;;;;;;4.80;1.25;;;;;;;;;;4859213;29;20045;-84
2024/02/07 14:13:41;;;;;;;4.07;1.10;;;;;;;;;;4859153;29;20061;-81
2024/02/07 14:16:12;;;;;;;6.78;1.70;;;;;;;;;;4859565;29;20042;-82
2024/02/07 14:18:43;;;;;;;3.38;1.15;;;;;;;;;;4843299;29;20049;-80
2024/02/07 14:21:13;;;;;;;9.13;2.90;;;;;;;;;;4861022;29;20080;-81
2024/02/07 14:23:43;;;;;;;2.33;1.05;;;;;;;;;;4846282;29;20072;-83
2024/02/07 14:26:13;;;;;;;4.43;1.08;;;;;;;;;;4863012;29;20076;-79
2024/02/07 14:28:43;;;;;;;3.75;1.23;;;;;;;;;;4846892;29;20069;-81
2024/02/07 14:31:13;;;;;;;2.30;0.90;;;;;;;;;;4862854;29;20053;-81
2024/02/07 14:33:43;;;;;;;2.70;0.95;;;;;;;;;;4863638;29;20555;-82
2024/02/07 14:36:13;;;;;;;2.65;1.13;;;;;;;;;;4847631;29;20523;-82
2024/02/07 14:38:43;;;;;;;2.60;0.98;;;;;;;;;;4836316;29;20048;-84
2024/02/07 14:41:13;;;;;;;3.05;1.10;;;;;;;;;;4839258;29;20523;-81
2024/02/07 14:43:44;;;;;;;2.50;0.70;;;;;;;;;;4839300;29;20054;-81
2024/02/07 14:46:14;;;;;;;1.95;0.80;;;;;;;;;;4842463;29;20053;-81
2024/02/07 14:48:45;;;;;;;2.30;1.17;;;;;;;;;;4843600;29;20050;-81
2024/02/07 14:51:15;;;;;;;3.22;1.42;;;;;;;;;;4843446;29;20038;-83
2024/02/07 14:53:45;;;;;;;2.97;1.00;;;;;;;;;;4844481;29;20049;-82
2024/02/07 14:56:15;;;;;;;4.57;1.20;;;;;;;;;;4844014;29;20061;-82
2024/02/07 14:58:45;;;;;;;2.22;1.00;;;;;;;;;;4843671;29;20061;-81
2024/02/07 15:01:16;;;;;;;3.28;1.08;;;;;;;;;;4840943;29;20046;-81
2024/02/07 15:03:47;;;;;;;;;;;;;;;;;;4843616;29;20498;-83
2024/02/07 15:06:18;;;;;;;3.00;0.93;;;;;;;;;;4827780;29;19947;-82
2024/02/07 15:08:47;;;;;;;6.57;1.02;;;;;;;;;;4843857;29;20156;-82
2024/02/07 15:11:18;;;;;;;3.33;1.15;;;;;;;;;;4844044;29;20045;-84
2024/02/07 15:13:47;;;;;;;4.22;1.20;;;;;;;;;;4827944;29;20068;-84
2024/02/07 15:16:17;;;;;;;3.08;0.95;;;;;;;;;;4843550;29;20053;-81
2024/02/07 15:18:48;;;;;;;3.22;1.02;;;;;;;;;;4852336;29;20053;-84
2024/02/07 15:21:18;;;;;;;2.25;0.88;;;;;;;;;;4858341;29;20050;-81
2024/02/07 15:23:48;;;;;;;1.85;0.85;;;;;;;;;;4843119;29;20425;-83
2024/02/07 15:26:18;;;;;;;1.77;1.15;;;;;;;;;;4827506;29;20417;-81
2024/02/07 15:28:48;;;;;;;3.00;1.33;;;;;;;;;;4842491;29;20046;-81
2024/02/07 15:31:18;;;;;;;3.85;1.30;;;;;;;;;;4850855;29;20072;-81
2024/02/07 15:33:48;;;;;;;1.85;1.17;;;;;;;;;;4827430;29;20053;-82
2024/02/07 15:36:18;;;;;;;2.50;1.13;;;;;;;;;;4841966;29;20053;-82
2024/02/07 15:38:48;;;;;;;3.00;1.70;;;;;;;;;;4848796;29;20046;-83
2024/02/07 15:41:19;;;;;;;2.55;1.10;;;;;;;;;;4858155;29;20065;-82
2024/02/07 15:43:53;;;;;;;3.20;1.17;;;;;;;;;;4833414;29;20046;-81
2024/02/07 15:46:23;;;;;;;2.95;1.15;;;;;;;;;;4825919;29;20049;-81
2024/02/07 15:48:53;;;;;;;2.60;1.10;;;;;;;;;;4843011;29;20061;-81
2024/02/07 15:51:36;;;;;;;3.70;0.98;;;;;;;;;;4846848;29;20543;-81
2024/02/07 15:54:07;;;;;;;1.95;1.20;;;;;;;;;;4861363;29;20492;-82
2024/02/07 15:56:37;;;;;;;4.47;1.52;;;;;;;;;;4843543;29;20050;-81
2024/02/07 15:59:07;;;;;;;2.15;1.27;;;;;;;;;;4843074;29;20500;-81
2024/02/07 16:01:37;;;;;;;11.77;1.90;;;;;;;;;;4842283;29;20065;-81
2024/02/07 16:04:21;;;;;;;4.15;1.13;;;;;;;;;;4810477;29;20058;-82
2024/02/07 16:06:51;;;;;;;2.72;1.00;;;;;;;;;;4838254;29;20057;-83
2024/02/07 16:09:22;;;;;;;3.03;1.10;;;;;;;;;;4826426;29;20061;-82
2024/02/07 16:11:54;;;;;;;1.75;1.08;;;;;;;;;;4842378;29;20049;-82
2024/02/07 16:14:25;;;;;;;2.30;1.08;;;;;;;;;;4841115;29;20038;-82
2024/02/07 16:16:57;;;;;;;3.47;1.20;;;;;;;;;;4846992;29;20053;-83
2024/02/07 16:19:27;;;;;;;5.18;1.00;;;;;;;;;;4834738;29;20425;-81
2024/02/07 16:21:59;;;;;;;3.53;1.20;;;;;;;;;;4839069;29;20053;-82